createdAt,value
2023-04-01T00:01:19.115Z,99955.52
2023-04-01T00:03:47.660Z,99948.80
2023-04-01T00:06:18.537Z,99952.81
2023-04-01T00:08:47.871Z,99949.79
2023-04-01T00:11:16.976Z,99953.91
2023-04-01T00:13:45.577Z,99955.98
2023-04-01T00:16:21.659Z,99945.70
2023-04-01T00:18:52.022Z,99935.15
2023-04-01T00:21:21.686Z,99931.84
2023-04-01T00:23:51.874Z,99937.35
2023-04-01T00:26:22.587Z,99944.04
2023-04-01T00:28:51.351Z,99938.52
2023-04-01T00:31:20.140Z,99938.85
2023-04-01T00:33:49.238Z,99920.27
2023-04-01T00:36:20.577Z,99916.80
2023-04-01T00:38:49.052Z,99911.77
2023-04-01T00:41:18.929Z,99909.48
2023-04-01T00:43:49.987Z,99915.92
2023-04-01T00:46:19.193Z,99917.65
2023-04-01T00:48:57.062Z,99909.10
2023-04-01T00:51:30.479Z,99904.44
2023-04-01T00:54:03.000Z,99901.44
2023-04-01T00:56:56.977Z,99908.02
2023-04-01T00:59:28.964Z,99910.83
2023-04-01T01:01:57.137Z,99909.33
2023-04-01T01:04:36.676Z,99902.17
2023-04-01T01:07:24.954Z,99907.44
2023-04-01T01:10:16.315Z,99905.12
2023-04-01T01:13:07.745Z,99898.48
2023-04-01T01:15:51.134Z,99898.84
2023-04-01T01:18:55.662Z,99901.05
2023-04-01T01:21:47.068Z,99895.52
2023-04-01T01:24:43.425Z,99894.92
2023-04-01T01:28:11.579Z,99883.83
2023-04-01T01:31:10.815Z,99879.16
2023-04-01T01:33:45.305Z,99884.27
2023-04-01T01:36:16.126Z,99881.85
2023-04-01T01:38:46.500Z,99879.03
2023-04-01T01:41:18.823Z,99874.50
2023-04-01T01:43:50.241Z,99872.21
2023-04-01T01:46:24.470Z,99874.47
2023-04-01T01:48:54.408Z,99871.90
2023-04-01T01:51:24.611Z,99868.14
2023-04-01T01:53:53.146Z,99869.45
2023-04-01T01:56:28.457Z,99874.73
2023-04-01T01:59:02.500Z,99874.58
2023-04-01T02:01:34.374Z,99871.09
2023-04-01T02:04:12.381Z,99867.92
2023-04-01T02:06:49.089Z,99866.99
2023-04-01T02:09:18.073Z,99864.06
2023-04-01T02:11:54.468Z,99860.83
2023-04-01T02:15:13.078Z,99855.76
2023-04-01T02:17:45.966Z,99855.77
2023-04-01T02:20:16.045Z,99852.86
2023-04-01T02:22:50.789Z,99855.45
2023-04-01T02:25:26.205Z,99854.43
2023-04-01T02:27:56.254Z,99848.73
2023-04-01T02:30:26.843Z,99848.08
2023-04-01T02:32:58.036Z,99845.13
2023-04-01T02:35:27.241Z,99844.21
2023-04-01T02:37:56.243Z,99843.15
2023-04-01T02:40:25.290Z,99839.52
2023-04-01T02:42:53.798Z,99834.97
2023-04-01T02:45:22.262Z,99836.37
2023-04-01T02:47:50.888Z,99835.82
2023-04-01T02:50:19.232Z,99829.78
2023-04-01T02:52:47.461Z,99819.55
2023-04-01T02:55:16.370Z,99816.55
2023-04-01T02:57:44.728Z,99821.55
2023-04-01T03:00:13.810Z,99822.05
2023-04-01T03:02:42.527Z,99821.60
2023-04-01T03:05:11.862Z,99816.20
2023-04-01T03:07:40.483Z,99811.86
2023-04-01T03:10:09.616Z,99812.48
2023-04-01T03:12:38.061Z,99806.61
2023-04-01T03:15:10.671Z,99804.48
2023-04-01T03:17:42.600Z,99800.08
2023-04-01T03:20:12.308Z,99798.38
2023-04-01T03:22:42.872Z,99800.77
2023-04-01T03:25:12.322Z,99800.75
2023-04-01T03:27:40.888Z,99801.02
2023-04-01T03:30:10.707Z,99801.42
2023-04-01T03:32:43.857Z,99798.39
2023-04-01T03:35:12.589Z,99791.29
2023-04-01T03:37:41.286Z,99789.58
2023-04-01T03:40:10.620Z,99784.98
2023-04-01T03:42:39.116Z,99781.17
2023-04-01T03:45:07.934Z,99779.99
2023-04-01T03:47:36.985Z,99781.83
2023-04-01T03:50:07.134Z,99782.44
2023-04-01T03:52:35.917Z,99781.10
2023-04-01T03:55:05.146Z,99780.31
2023-04-01T03:57:33.644Z,99778.90
2023-04-01T04:00:04.917Z,99783.73
2023-04-01T04:02:42.474Z,99782.39
2023-04-01T04:05:11.946Z,99779.73
2023-04-01T04:07:40.482Z,99774.63
2023-04-01T04:10:10.458Z,99777.58
2023-04-01T04:12:39.053Z,99775.63
2023-04-01T04:15:08.122Z,99775.66
2023-04-01T04:17:36.848Z,99776.09
2023-04-01T04:20:05.893Z,99768.89
2023-04-01T04:22:34.225Z,99765.63
2023-04-01T04:25:03.151Z,99758.35
2023-04-01T04:27:31.705Z,99757.77
2023-04-01T04:30:09.558Z,99750.71
2023-04-01T04:32:38.506Z,99750.64
2023-04-01T04:35:07.786Z,99751.21
2023-04-01T04:37:36.451Z,99752.67
2023-04-01T04:40:05.110Z,99750.48
2023-04-01T04:42:33.995Z,99747.84
2023-04-01T04:45:07.914Z,99748.48
2023-04-01T04:47:36.623Z,99749.10
2023-04-01T04:50:05.563Z,99747.02
2023-04-01T04:52:34.598Z,99745.20
2023-04-01T04:55:02.974Z,99741.42
2023-04-01T04:57:31.391Z,99743.79
2023-04-01T05:00:00.105Z,99735.84
2023-04-01T05:02:47.960Z,99732.80
2023-04-01T05:05:16.971Z,99721.41
2023-04-01T05:07:45.764Z,99718.98
2023-04-01T05:10:14.321Z,99715.30
2023-04-01T05:12:42.730Z,99716.80
2023-04-01T05:15:12.904Z,99718.58
2023-04-01T05:17:42.130Z,99714.99
2023-04-01T05:20:13.946Z,99715.18
2023-04-01T05:22:42.606Z,99714.39
2023-04-01T05:25:11.257Z,99715.10
2023-04-01T05:27:40.002Z,99716.36
2023-04-01T05:30:08.892Z,99714.85
2023-04-01T05:32:48.470Z,99715.38
2023-04-01T05:35:16.985Z,99717.40
2023-04-01T05:37:45.504Z,99717.10
2023-04-01T05:40:14.192Z,99717.03
2023-04-01T05:42:42.697Z,99718.34
2023-04-01T05:45:11.504Z,99713.18
2023-04-01T05:48:18.158Z,99709.15
2023-04-01T05:50:46.504Z,99704.54
2023-04-01T05:53:15.969Z,99700.27
2023-04-01T05:55:45.795Z,99695.80
2023-04-01T05:58:15.517Z,99695.83
2023-04-01T06:00:46.736Z,99692.70
2023-04-01T06:03:18.535Z,99692.98
2023-04-01T06:05:47.037Z,99688.76
2023-04-01T06:08:20.326Z,99681.70
2023-04-01T06:11:25.971Z,99676.55
2023-04-01T06:14:10.256Z,99679.60
2023-04-01T06:17:17.660Z,99674.31
2023-04-01T06:20:27.507Z,99674.00
2023-04-01T06:23:20.958Z,99672.24
2023-04-01T06:26:01.165Z,99670.25
2023-04-01T06:28:53.162Z,99666.81
2023-04-01T06:31:28.005Z,99659.48
2023-04-01T06:34:40.303Z,99653.21
2023-04-01T06:37:46.664Z,99657.52
2023-04-01T06:40:52.684Z,99660.59
2023-04-01T06:43:32.808Z,99656.66
2023-04-01T06:46:56.506Z,99651.25
2023-04-01T06:50:17.393Z,99655.57
2023-04-01T06:53:21.292Z,99652.45
2023-04-01T06:56:14.396Z,99649.37
2023-04-01T06:59:20.763Z,99648.61
2023-04-01T07:02:29.007Z,99651.33
2023-04-01T07:04:59.589Z,99651.42
2023-04-01T07:07:39.427Z,99650.95
2023-04-01T07:10:23.650Z,99650.88
2023-04-01T07:13:34.366Z,99645.61
2023-04-01T07:16:08.119Z,99641.29
2023-04-01T07:18:51.681Z,99641.23
2023-04-01T07:21:31.943Z,99641.41
2023-04-01T07:24:08.177Z,99635.86
2023-04-01T07:26:45.574Z,99633.05
2023-04-01T07:29:17.597Z,99630.69
2023-04-01T07:32:17.459Z,99630.41
2023-04-01T07:34:47.002Z,99634.42
2023-04-01T07:37:18.743Z,99630.86
2023-04-01T07:39:59.874Z,99627.36
2023-04-01T07:42:43.162Z,99623.79
2023-04-01T07:45:18.351Z,99623.47
2023-04-01T07:48:21.148Z,99618.27
2023-04-01T07:51:04.651Z,99618.23
2023-04-01T07:53:51.657Z,99623.62
2023-04-01T07:56:37.277Z,99631.84
2023-04-01T07:59:19.253Z,99640.62
2023-04-01T08:02:05.860Z,99640.27
2023-04-01T08:04:34.750Z,99634.30
2023-04-01T08:07:26.517Z,99632.33
2023-04-01T08:10:30.600Z,99627.36
2023-04-01T08:14:05.186Z,99622.95
2023-04-01T08:17:38.412Z,99622.73
2023-04-01T08:20:19.003Z,99616.05
2023-04-01T08:22:54.568Z,99621.92
2023-04-01T08:25:33.669Z,99622.42
2023-04-01T08:28:08.686Z,99615.02
2023-04-01T08:31:00.155Z,99610.90
2023-04-01T08:33:32.676Z,99610.09
2023-04-01T08:36:29.862Z,99603.85
2023-04-01T08:39:14.640Z,99608.14
2023-04-01T08:42:17.531Z,99605.85
2023-04-01T08:45:27.563Z,99595.77
2023-04-01T08:48:10.005Z,99589.97
2023-04-01T08:50:52.302Z,99593.08
2023-04-01T08:53:36.876Z,99589.92
2023-04-01T08:56:36.826Z,99592.50
2023-04-01T08:59:25.587Z,99605.11
2023-04-01T09:02:00.327Z,99604.67
2023-04-01T09:05:19.099Z,99607.30
2023-04-01T09:07:48.525Z,99603.77
2023-04-01T09:10:21.260Z,99597.88
2023-04-01T09:13:09.270Z,99595.66
2023-04-01T09:15:53.379Z,99592.04
2023-04-01T09:18:32.252Z,99594.68
2023-04-01T09:21:13.274Z,99599.02
2023-04-01T09:24:00.322Z,99602.46
2023-04-01T09:26:50.162Z,99592.20
2023-04-01T09:29:58.796Z,99592.77
2023-04-01T09:32:55.419Z,99590.95
2023-04-01T09:35:48.732Z,99588.81
2023-04-01T09:38:33.472Z,99589.38
2023-04-01T09:41:23.862Z,99594.66
2023-04-01T09:44:21.382Z,99596.40
2023-04-01T09:47:17.246Z,99577.02
2023-04-01T09:50:18.157Z,99566.96
2023-04-01T09:52:53.049Z,99564.33
2023-04-01T09:55:52.675Z,99556.84
2023-04-01T09:58:46.785Z,99545.93
2023-04-01T10:01:53.965Z,99563.75
2023-04-01T10:04:37.720Z,99592.11
2023-04-01T10:07:40.547Z,99599.77
2023-04-01T10:10:31.207Z,99599.10
2023-04-01T10:13:32.401Z,99589.53
2023-04-01T10:16:19.964Z,99583.09
2023-04-01T10:18:48.736Z,99586.59
2023-04-01T10:21:39.117Z,99582.86
2023-04-01T10:24:43.424Z,99571.73
2023-04-01T10:27:34.442Z,99560.55
2023-04-01T10:30:43.517Z,99550.10
2023-04-01T10:33:39.497Z,99555.55
2023-04-01T10:36:45.946Z,99555.58
2023-04-01T10:39:51.612Z,99548.81
2023-04-01T10:43:14.662Z,99550.63
2023-04-01T10:46:16.959Z,99541.02
2023-04-01T10:49:10.626Z,99538.49
2023-04-01T10:52:24.139Z,99532.20
2023-04-01T10:55:36.210Z,99531.21
2023-04-01T10:58:29.767Z,99534.30
2023-04-01T11:01:47.071Z,99533.09
2023-04-01T11:05:07.998Z,99528.64
2023-04-01T11:08:07.279Z,99527.63
2023-04-01T11:11:22.802Z,99524.42
2023-04-01T11:14:13.144Z,99516.29
2023-04-01T11:17:13.947Z,99517.98
2023-04-01T11:20:15.154Z,99521.53
2023-04-01T11:22:56.393Z,99519.02
2023-04-01T11:25:50.674Z,99509.84
2023-04-01T11:29:15.331Z,99503.67
2023-04-01T11:32:05.583Z,99502.96
2023-04-01T11:34:38.108Z,99494.73
2023-04-01T11:37:38.578Z,99489.61
2023-04-01T11:40:51.676Z,99486.05
2023-04-01T11:44:00.425Z,99489.95
2023-04-01T11:47:26.984Z,99483.77
2023-04-01T11:50:12.400Z,99487.36
2023-04-01T11:53:04.314Z,99490.17
2023-04-01T11:55:39.051Z,99483.83
2023-04-01T11:58:29.195Z,99476.35
2023-04-01T12:01:28.271Z,99467.33
2023-04-01T12:04:28.553Z,99469.73
2023-04-01T12:07:21.761Z,99465.23
2023-04-01T12:10:13.691Z,99469.39
2023-04-01T12:13:04.523Z,99468.69
2023-04-01T12:15:51.514Z,99467.57
2023-04-01T12:18:24.870Z,99460.63
2023-04-01T12:21:21.351Z,99455.77
2023-04-01T12:23:56.514Z,99451.25
2023-04-01T12:26:52.046Z,99446.64
2023-04-01T12:29:30.337Z,99445.31
2023-04-01T12:32:23.267Z,99441.08
2023-04-01T12:35:02.316Z,99439.64
2023-04-01T12:37:43.454Z,99435.19
2023-04-01T12:40:40.035Z,99431.70
2023-04-01T12:43:27.321Z,99429.23
2023-04-01T12:46:08.907Z,99421.54
2023-04-01T12:49:16.116Z,99420.39
2023-04-01T12:52:02.363Z,99421.30
2023-04-01T12:54:46.405Z,99423.10
2023-04-01T12:57:34.680Z,99414.90
2023-04-01T13:00:24.854Z,99423.05
2023-04-01T13:03:08.719Z,99429.29
2023-04-01T13:05:58.461Z,99437.05
2023-04-01T13:08:42.667Z,99434.89
2023-04-01T13:11:16.277Z,99431.19
2023-04-01T13:14:25.004Z,99424.63
2023-04-01T13:17:04.000Z,99428.02
2023-04-01T13:20:05.053Z,99432.73
2023-04-01T13:22:50.718Z,99436.44
2023-04-01T13:25:40.753Z,99430.60
2023-04-01T13:28:24.510Z,99440.92
2023-04-01T13:31:02.159Z,99445.62
2023-04-01T13:33:49.949Z,99445.95
2023-04-01T13:36:38.243Z,99448.52
2023-04-01T13:39:31.922Z,99461.64
2023-04-01T13:42:39.044Z,99464.23
2023-04-01T13:45:15.451Z,99462.15
2023-04-01T13:47:59.217Z,99455.58
2023-04-01T13:50:52.424Z,99452.88
2023-04-01T13:54:20.944Z,99456.75
2023-04-01T13:57:01.175Z,99458.69
2023-04-01T13:59:48.727Z,99457.98
2023-04-01T14:02:35.800Z,99464.40
2023-04-01T14:05:16.226Z,99466.75
2023-04-01T14:08:26.540Z,99473.22
2023-04-01T14:11:03.907Z,99473.64
2023-04-01T14:13:42.452Z,99471.65
2023-04-01T14:16:23.091Z,99475.77
2023-04-01T14:19:21.124Z,99479.63
2023-04-01T14:22:04.594Z,99477.30
2023-04-01T14:25:00.979Z,99471.83
2023-04-01T14:27:40.001Z,99479.85
2023-04-01T14:30:11.381Z,99480.00
2023-04-01T14:32:57.164Z,99472.61
2023-04-01T14:35:31.488Z,99459.56
2023-04-01T14:38:26.141Z,99459.15
2023-04-01T14:41:33.696Z,99462.63
2023-04-01T14:44:28.847Z,99456.88
2023-04-01T14:47:23.500Z,99463.23
2023-04-01T14:50:06.961Z,99466.92
2023-04-01T14:52:41.418Z,99465.02
2023-04-01T14:55:47.446Z,99461.65
2023-04-01T14:58:17.165Z,99457.17
2023-04-01T15:00:50.944Z,99455.70
2023-04-01T15:03:37.918Z,99459.59
2023-04-01T15:06:28.157Z,99452.81
2023-04-01T15:09:15.318Z,99452.98
2023-04-01T15:12:08.448Z,99450.04
2023-04-01T15:14:40.095Z,99445.55
2023-04-01T15:17:22.232Z,99441.90
2023-04-01T15:20:09.238Z,99441.73
2023-04-01T15:22:57.360Z,99439.79
2023-04-01T15:25:35.022Z,99442.34
2023-04-01T15:28:42.325Z,99441.61
2023-04-01T15:31:27.909Z,99442.71
2023-04-01T15:33:59.555Z,99441.83
2023-04-01T15:36:33.997Z,99444.84
2023-04-01T15:39:21.352Z,99443.84
2023-04-01T15:42:11.401Z,99445.04
2023-04-01T15:45:20.685Z,99439.23
2023-04-01T15:48:27.300Z,99434.93
2023-04-01T15:51:19.093Z,99431.44
2023-04-01T15:53:53.443Z,99420.84
2023-04-01T15:57:00.251Z,99414.52
2023-04-01T15:59:34.523Z,99407.65
2023-04-01T16:02:02.994Z,99402.80
2023-04-01T16:05:02.804Z,99403.48
2023-04-01T16:08:00.406Z,99398.46
2023-04-01T16:11:27.460Z,99391.33
2023-04-01T16:14:34.249Z,99385.15
2023-04-01T16:17:22.591Z,99373.05
2023-04-01T16:20:13.785Z,99369.27
2023-04-01T16:26:05.117Z,99353.08
2023-04-01T16:29:04.497Z,99355.39
2023-04-01T16:32:25.493Z,99353.14
2023-04-01T16:36:01.266Z,99354.04
2023-04-01T16:39:21.334Z,99358.17
2023-04-01T16:42:27.733Z,99355.63
2023-04-01T16:45:04.256Z,99352.80
2023-04-01T16:47:55.691Z,99352.34
2023-04-01T16:51:00.042Z,99360.72
2023-04-01T16:53:37.708Z,99372.82
2023-04-01T16:56:18.184Z,99378.08
2023-04-01T16:59:35.709Z,99375.75
2023-04-01T17:02:53.111Z,99373.87
2023-04-01T17:05:35.096Z,99367.21
2023-04-01T17:08:12.668Z,99370.45
2023-04-01T17:10:53.944Z,99371.04
2023-04-01T17:13:43.559Z,99375.77
2023-04-01T17:16:18.973Z,99379.91
2023-04-01T17:19:02.458Z,99382.39
2023-04-01T17:21:47.744Z,99389.04
2023-04-01T17:24:22.089Z,99397.65
2023-04-01T17:27:00.606Z,99403.05
2023-04-01T17:29:31.934Z,99411.23
2023-04-01T17:32:02.799Z,99420.83
2023-04-01T17:35:01.004Z,99433.65
2023-04-01T17:37:42.164Z,99444.57
2023-04-01T17:40:41.576Z,99450.16
2023-04-01T17:43:15.962Z,99461.80
2023-04-01T17:45:51.452Z,99464.38
2023-04-01T17:48:31.780Z,99466.99
2023-04-01T17:51:09.285Z,99472.52
2023-04-01T17:54:14.496Z,99471.36
2023-04-01T17:57:24.233Z,99469.37
2023-04-01T18:00:17.151Z,99474.08
2023-04-01T18:03:22.898Z,99481.60
2023-04-01T18:06:18.983Z,99480.80
2023-04-01T18:09:24.422Z,99485.57
2023-04-01T18:12:01.652Z,99487.38
2023-04-01T18:15:21.071Z,99488.20
2023-04-01T18:18:13.526Z,99489.98
2023-04-01T18:20:48.296Z,99484.74
2023-04-01T18:23:38.436Z,99480.67
2023-04-01T18:26:14.419Z,99472.73
2023-04-01T18:29:01.162Z,99463.86
2023-04-01T18:31:47.580Z,99449.88
2023-04-01T18:34:53.133Z,99449.63
2023-04-01T18:37:47.387Z,99458.67
2023-04-01T18:40:25.495Z,99467.06
2023-04-01T18:43:06.773Z,99463.41
2023-04-01T18:45:42.756Z,99458.00
2023-04-01T18:48:35.752Z,99456.80
2023-04-01T18:51:26.815Z,99454.73
2023-04-01T18:54:01.781Z,99449.88
2023-04-01T18:56:32.781Z,99442.66
2023-04-01T18:59:30.688Z,99435.73
2023-04-01T19:02:21.801Z,99432.27
2023-04-01T19:05:05.530Z,99430.08
2023-04-01T19:07:51.290Z,99440.55
2023-04-01T19:10:23.014Z,99452.35
2023-04-01T19:12:51.507Z,99465.48
2023-04-01T19:16:01.598Z,99463.15
2023-04-01T19:18:53.625Z,99462.48
2023-04-01T19:21:31.038Z,99467.63
2023-04-01T19:24:21.686Z,99467.12
2023-04-01T19:27:00.034Z,99459.40
2023-04-01T19:30:11.958Z,99454.11
2023-04-01T19:33:09.177Z,99462.83
2023-04-01T19:35:43.150Z,99461.16
2023-04-01T19:38:40.529Z,99462.27
2023-04-01T19:41:26.669Z,99454.84
2023-04-01T19:44:03.979Z,99453.42
2023-04-01T19:46:42.752Z,99451.67
2023-04-01T19:49:19.886Z,99453.59
2023-04-01T19:51:52.641Z,99462.24
2023-04-01T19:55:33.793Z,99470.24
2023-04-01T19:58:06.871Z,99490.77
2023-04-01T20:00:45.704Z,99502.59
2023-04-01T20:04:05.083Z,99508.00
2023-04-01T20:06:45.706Z,99506.84
2023-04-01T20:09:33.012Z,99505.77
2023-04-01T20:12:52.500Z,99510.02
2023-04-01T20:15:23.926Z,99520.96
2023-04-01T20:17:55.198Z,99523.63
2023-04-01T20:20:28.381Z,99524.63
2023-04-01T20:23:00.961Z,99527.38
2023-04-01T20:25:33.405Z,99527.51
2023-04-01T20:28:48.687Z,99530.83
2023-04-01T20:31:26.239Z,99532.48
2023-04-01T20:33:59.014Z,99527.14
2023-04-01T20:36:52.182Z,99532.30
2023-04-01T20:39:26.657Z,99533.82
2023-04-01T20:42:23.060Z,99532.45
2023-04-01T20:44:56.973Z,99527.84
2023-04-01T20:47:52.935Z,99523.55
2023-04-01T20:50:27.178Z,99525.35
2023-04-01T20:53:56.789Z,99525.19
2023-04-01T20:57:14.270Z,99521.79
2023-04-01T21:04:14.818Z,99515.54
2023-04-01T21:07:25.862Z,99515.96
2023-04-01T21:10:45.041Z,99514.80
2023-04-01T21:13:45.495Z,99513.34
2023-04-01T21:17:28.496Z,99513.10
2023-04-01T21:25:16.774Z,99495.86
2023-04-01T21:28:26.938Z,99495.87
2023-04-01T21:32:06.936Z,99493.83
2023-04-01T21:35:34.442Z,99494.67
2023-04-01T21:38:22.867Z,99488.91
2023-04-01T21:44:56.411Z,99489.70
2023-04-01T21:47:55.122Z,99487.42
2023-04-01T21:50:45.494Z,99490.94
2023-04-01T21:54:15.005Z,99490.89
2023-04-01T21:57:35.893Z,99484.33
2023-04-01T22:01:14.070Z,99480.54
2023-04-01T22:04:05.389Z,99474.24
2023-04-01T22:07:42.083Z,99470.34
2023-04-01T22:11:23.924Z,99463.71
2023-04-01T22:14:43.064Z,99460.39
2023-04-01T22:17:20.312Z,99458.91
2023-04-01T22:20:15.120Z,99455.35
2023-04-01T22:23:08.866Z,99458.11
2023-04-01T22:26:00.301Z,99463.99
2023-04-01T22:28:34.003Z,99465.05
2023-04-01T22:31:04.218Z,99465.11
2023-04-01T22:34:07.402Z,99464.21
2023-04-01T22:36:57.298Z,99460.41
2023-04-01T22:39:56.249Z,99458.86
2023-04-01T22:42:43.336Z,99462.54
2023-04-01T22:45:15.101Z,99466.83
2023-04-01T22:47:46.250Z,99470.02
2023-04-01T22:50:54.876Z,99468.80
2023-04-01T22:53:45.656Z,99475.56
2023-04-01T22:57:22.901Z,99471.25
2023-04-01T23:00:53.912Z,99463.67
2023-04-01T23:04:14.086Z,99461.63
2023-04-01T23:11:46.979Z,99459.16
2023-04-01T23:14:41.642Z,99460.60
2023-04-01T23:17:59.434Z,99468.20
2023-04-01T23:20:56.647Z,99463.77
2023-04-01T23:24:07.981Z,99461.00
2023-04-01T23:27:55.525Z,99459.13
2023-04-01T23:31:33.100Z,99459.70
2023-04-01T23:34:04.847Z,99459.84
2023-04-01T23:36:40.281Z,99456.05
2023-04-01T23:39:32.053Z,99454.54
2023-04-01T23:42:07.446Z,99448.98
2023-04-01T23:44:37.409Z,99445.74
2023-04-01T23:47:10.466Z,99445.13
2023-04-01T23:49:49.031Z,99441.12
2023-04-01T23:52:23.604Z,99440.25
2023-04-01T23:55:54.635Z,99439.32
2023-04-01T23:59:22.948Z,99435.67
